createdAt,value
2023-03-31T00:00:54.404Z,11.59
2023-03-31T00:03:22.128Z,11.67
2023-03-31T00:05:53.543Z,11.74
2023-03-31T00:08:21.375Z,11.66
2023-03-31T00:10:49.170Z,11.65
2023-03-31T00:13:16.661Z,11.59
2023-03-31T00:15:44.112Z,11.55
2023-03-31T00:18:11.495Z,11.55
2023-03-31T00:20:38.848Z,11.54
2023-03-31T00:23:10.830Z,11.40
2023-03-31T00:25:41.994Z,11.37
2023-03-31T00:28:09.449Z,11.34
2023-03-31T00:30:36.802Z,11.37
2023-03-31T00:33:04.776Z,11.30
2023-03-31T00:35:32.355Z,11.33
2023-03-31T00:37:59.850Z,11.33
2023-03-31T00:40:27.240Z,11.38
2023-03-31T00:42:54.586Z,11.61
2023-03-31T00:45:27.674Z,11.87
2023-03-31T00:48:10.264Z,11.83
2023-03-31T00:51:00.304Z,11.88
2023-03-31T00:53:30.789Z,11.88
2023-03-31T00:56:08.050Z,11.87
2023-03-31T00:58:35.783Z,11.95
2023-03-31T01:01:04.362Z,11.93
2023-03-31T01:03:33.585Z,11.94
2023-03-31T01:06:13.207Z,12.01
2023-03-31T01:08:42.089Z,11.96
2023-03-31T01:11:12.680Z,11.88
2023-03-31T01:13:41.827Z,11.77
2023-03-31T01:16:09.453Z,11.73
2023-03-31T01:18:36.980Z,11.63
2023-03-31T01:21:40.988Z,11.75
2023-03-31T01:24:11.111Z,11.62
2023-03-31T01:26:49.826Z,11.57
2023-03-31T01:29:40.404Z,11.58
2023-03-31T01:32:20.054Z,11.50
2023-03-31T01:35:19.637Z,11.52
2023-03-31T01:38:05.154Z,11.64
2023-03-31T01:41:00.107Z,11.52
2023-03-31T01:43:42.575Z,11.63
2023-03-31T01:46:29.480Z,11.80
2023-03-31T01:49:31.127Z,11.75
2023-03-31T01:51:58.420Z,11.75
2023-03-31T01:54:37.833Z,11.78
2023-03-31T01:57:16.728Z,11.83
2023-03-31T02:00:03.904Z,11.77
2023-03-31T02:02:43.246Z,11.80
2023-03-31T02:05:17.231Z,11.96
2023-03-31T02:07:52.943Z,11.98
2023-03-31T02:10:22.121Z,11.90
2023-03-31T02:12:50.397Z,11.91
2023-03-31T02:15:27.200Z,11.77
2023-03-31T02:17:58.156Z,11.66
2023-03-31T02:20:27.601Z,11.54
2023-03-31T02:22:57.102Z,11.63
2023-03-31T02:25:31.539Z,11.54
2023-03-31T02:28:04.385Z,11.47
2023-03-31T02:31:04.050Z,11.46
2023-03-31T02:33:31.464Z,11.42
2023-03-31T02:36:00.080Z,11.48
2023-03-31T02:38:27.741Z,11.50
2023-03-31T02:40:55.220Z,11.44
2023-03-31T02:43:22.773Z,11.43
2023-03-31T02:45:51.812Z,11.45
2023-03-31T02:48:28.071Z,11.42
2023-03-31T02:51:22.052Z,11.31
2023-03-31T02:54:16.152Z,11.26
2023-03-31T02:57:20.798Z,11.27
2023-03-31T03:00:09.616Z,11.22
2023-03-31T03:03:19.866Z,11.22
2023-03-31T03:09:34.753Z,11.17
2023-03-31T03:12:17.841Z,11.14
2023-03-31T03:15:27.210Z,11.07
2023-03-31T03:17:55.994Z,11.03
2023-03-31T03:20:23.798Z,11.04
2023-03-31T03:22:51.326Z,11.02
2023-03-31T03:25:20.494Z,10.97
2023-03-31T03:27:48.273Z,10.98
2023-03-31T03:30:15.429Z,10.92
2023-03-31T03:32:43.269Z,10.92
2023-03-31T03:35:11.147Z,10.88
2023-03-31T03:37:38.626Z,10.90
2023-03-31T03:40:07.046Z,10.86
2023-03-31T03:42:35.540Z,10.82
2023-03-31T03:45:03.487Z,10.78
2023-03-31T03:47:30.951Z,10.74
2023-03-31T03:49:58.315Z,10.68
2023-03-31T03:52:25.723Z,10.65
2023-03-31T03:54:53.071Z,10.60
2023-03-31T03:57:20.488Z,10.58
2023-03-31T03:59:47.555Z,10.51
2023-03-31T04:02:14.935Z,10.51
2023-03-31T04:04:42.382Z,10.49
2023-03-31T04:07:09.796Z,10.40
2023-03-31T04:09:37.174Z,10.38
2023-03-31T04:12:04.806Z,10.36
2023-03-31T04:14:32.131Z,10.29
2023-03-31T04:16:59.055Z,10.29
2023-03-31T04:19:27.607Z,10.28
2023-03-31T04:21:59.065Z,10.23
2023-03-31T04:24:30.811Z,10.24
2023-03-31T04:27:00.022Z,10.19
2023-03-31T04:29:27.502Z,10.12
2023-03-31T04:31:59.097Z,10.13
2023-03-31T04:34:35.172Z,10.19
2023-03-31T04:37:03.544Z,10.18
2023-03-31T04:39:31.222Z,10.18
2023-03-31T04:42:00.678Z,10.17
2023-03-31T04:44:28.458Z,10.15
2023-03-31T04:46:56.017Z,10.12
2023-03-31T04:49:23.758Z,10.13
2023-03-31T04:51:51.194Z,10.11
2023-03-31T04:54:18.626Z,10.09
2023-03-31T04:56:46.045Z,10.09
2023-03-31T04:59:13.587Z,10.08
2023-03-31T05:01:45.192Z,10.05
2023-03-31T05:04:12.903Z,10.04
2023-03-31T05:06:40.275Z,10.04
2023-03-31T05:09:10.748Z,10.04
2023-03-31T05:11:38.382Z,10.02
2023-03-31T05:14:06.161Z,10.02
2023-03-31T05:16:33.655Z,10.00
2023-03-31T05:19:01.044Z,10.02
2023-03-31T05:21:30.651Z,10.03
2023-03-31T05:23:58.603Z,10.01
2023-03-31T05:26:26.592Z,10.00
2023-03-31T05:28:54.316Z,9.94
2023-03-31T05:31:22.085Z,9.93
2023-03-31T05:33:49.502Z,9.91
2023-03-31T05:36:18.079Z,9.89
2023-03-31T05:38:46.074Z,9.88
2023-03-31T05:41:13.458Z,9.87
2023-03-31T05:43:41.153Z,9.88
2023-03-31T05:46:08.961Z,9.83
2023-03-31T05:48:38.066Z,9.79
2023-03-31T05:51:05.806Z,9.76
2023-03-31T05:53:34.271Z,9.76
2023-03-31T05:56:05.655Z,9.75
2023-03-31T05:58:36.269Z,9.76
2023-03-31T06:01:08.444Z,9.73
2023-03-31T06:03:39.012Z,9.75
2023-03-31T06:06:08.275Z,9.76
2023-03-31T06:08:36.683Z,9.78
2023-03-31T06:11:09.595Z,9.80
2023-03-31T06:13:38.185Z,9.82
2023-03-31T06:16:06.564Z,9.83
2023-03-31T06:18:36.023Z,9.84
2023-03-31T06:21:04.190Z,9.86
2023-03-31T06:23:31.939Z,9.87
2023-03-31T06:26:06.497Z,9.88
2023-03-31T06:28:34.982Z,9.92
2023-03-31T06:31:08.863Z,9.93
2023-03-31T06:33:36.666Z,9.94
2023-03-31T06:36:05.711Z,9.95
2023-03-31T06:38:34.733Z,9.98
2023-03-31T06:41:02.486Z,10.04
2023-03-31T06:43:30.138Z,10.04
2023-03-31T06:45:57.623Z,10.01
2023-03-31T06:48:25.707Z,10.04
2023-03-31T06:50:59.758Z,10.01
2023-03-31T06:53:27.511Z,10.03
2023-03-31T06:55:54.906Z,10.00
2023-03-31T06:58:22.646Z,9.99
2023-03-31T07:00:50.369Z,9.99
2023-03-31T07:03:19.254Z,9.99
2023-03-31T07:05:53.856Z,10.03
2023-03-31T07:08:21.823Z,10.03
2023-03-31T07:10:53.676Z,10.09
2023-03-31T07:13:21.308Z,10.14
2023-03-31T07:15:49.242Z,10.16
2023-03-31T07:18:17.499Z,10.21
2023-03-31T07:20:48.594Z,10.22
2023-03-31T07:23:16.248Z,10.27
2023-03-31T07:25:43.710Z,10.34
2023-03-31T07:28:11.100Z,10.41
2023-03-31T07:30:38.533Z,10.48
2023-03-31T07:33:06.473Z,10.53
2023-03-31T07:35:33.988Z,10.59
2023-03-31T07:38:01.323Z,10.64
2023-03-31T07:40:29.878Z,10.73
2023-03-31T07:42:57.229Z,10.83
2023-03-31T07:45:26.532Z,10.76
2023-03-31T07:47:54.492Z,10.62
2023-03-31T07:50:22.895Z,10.52
2023-03-31T07:52:50.750Z,10.42
2023-03-31T07:55:20.102Z,10.40
2023-03-31T07:57:47.812Z,10.43
2023-03-31T08:00:16.727Z,10.61
2023-03-31T08:02:44.658Z,10.76
2023-03-31T08:05:16.529Z,10.95
2023-03-31T08:07:46.907Z,10.98
2023-03-31T08:10:20.884Z,11.04
2023-03-31T08:12:48.281Z,11.21
2023-03-31T08:15:16.602Z,11.28
2023-03-31T08:17:44.092Z,11.34
2023-03-31T08:20:11.964Z,11.34
2023-03-31T08:22:40.228Z,11.42
2023-03-31T08:25:08.477Z,11.41
2023-03-31T08:27:37.852Z,11.51
2023-03-31T08:30:10.134Z,11.90
2023-03-31T08:32:37.865Z,12.20
2023-03-31T08:35:05.788Z,12.17
2023-03-31T08:37:33.319Z,12.25
2023-03-31T08:40:00.806Z,12.42
2023-03-31T08:42:41.918Z,12.50
2023-03-31T08:45:24.816Z,12.41
2023-03-31T08:48:04.632Z,12.44
2023-03-31T08:50:48.748Z,12.41
2023-03-31T08:53:19.869Z,12.37
2023-03-31T08:55:51.259Z,12.29
2023-03-31T08:58:50.534Z,12.21
2023-03-31T09:02:03.840Z,11.93
2023-03-31T09:04:33.630Z,11.69
2023-03-31T09:07:14.600Z,11.68
2023-03-31T09:09:45.232Z,11.58
2023-03-31T09:12:29.679Z,11.54
2023-03-31T09:15:16.166Z,11.54
2023-03-31T09:17:47.971Z,11.47
2023-03-31T09:20:21.656Z,11.43
2023-03-31T09:22:58.321Z,11.43
2023-03-31T09:25:36.346Z,11.44
2023-03-31T09:28:14.360Z,11.30
2023-03-31T09:30:42.731Z,10.89
2023-03-31T09:33:28.361Z,10.55
2023-03-31T09:35:56.591Z,10.64
2023-03-31T09:38:24.048Z,10.75
2023-03-31T09:40:51.563Z,10.86
2023-03-31T09:43:32.950Z,10.94
2023-03-31T09:46:08.750Z,11.01
2023-03-31T09:48:38.927Z,11.06
2023-03-31T09:51:18.445Z,11.34
2023-03-31T09:53:51.770Z,11.55
2023-03-31T09:56:41.914Z,11.94
2023-03-31T09:59:37.095Z,12.24
2023-03-31T10:02:34.811Z,12.52
2023-03-31T10:05:03.292Z,12.67
2023-03-31T10:07:31.055Z,12.74
2023-03-31T10:09:58.481Z,12.75
2023-03-31T10:12:29.437Z,12.80
2023-03-31T10:15:18.401Z,12.71
2023-03-31T10:17:55.032Z,12.43
2023-03-31T10:20:51.369Z,11.96
2023-03-31T10:23:25.521Z,11.96
2023-03-31T10:25:53.038Z,12.18
2023-03-31T10:28:21.992Z,12.47
2023-03-31T10:30:53.176Z,12.64
2023-03-31T10:33:25.406Z,12.78
2023-03-31T10:36:26.990Z,12.84
2023-03-31T10:38:55.013Z,12.64
2023-03-31T10:41:30.281Z,12.16
2023-03-31T10:44:03.870Z,11.64
2023-03-31T10:46:51.339Z,11.63
2023-03-31T10:49:28.268Z,11.90
2023-03-31T10:51:58.870Z,12.17
2023-03-31T10:54:27.167Z,12.53
2023-03-31T10:57:05.737Z,12.83
2023-03-31T11:00:33.085Z,12.94
2023-03-31T11:03:37.183Z,13.18
2023-03-31T11:06:04.755Z,13.02
2023-03-31T11:08:52.783Z,13.02
2023-03-31T11:11:50.940Z,12.82
2023-03-31T11:14:21.207Z,12.48
2023-03-31T11:17:12.630Z,12.35
2023-03-31T11:19:44.536Z,12.53
2023-03-31T11:22:28.811Z,12.76
2023-03-31T11:25:30.783Z,12.95
2023-03-31T11:28:28.495Z,13.11
2023-03-31T11:31:03.522Z,13.27
2023-03-31T11:33:52.109Z,13.43
2023-03-31T11:36:22.576Z,13.36
2023-03-31T11:39:27.220Z,13.30
2023-03-31T11:42:00.850Z,13.14
2023-03-31T11:44:40.652Z,12.98
2023-03-31T11:47:14.878Z,12.66
2023-03-31T11:50:11.643Z,12.34
2023-03-31T11:52:44.462Z,12.02
2023-03-31T11:55:21.890Z,12.10
2023-03-31T11:58:10.969Z,12.23
2023-03-31T12:00:57.204Z,12.26
2023-03-31T12:03:38.424Z,12.24
2023-03-31T12:06:19.863Z,12.22
2023-03-31T12:08:59.669Z,12.18
2023-03-31T12:11:47.148Z,12.21
2023-03-31T12:14:46.903Z,12.26
2023-03-31T12:17:18.316Z,12.29
2023-03-31T12:19:52.694Z,12.37
2023-03-31T12:22:22.639Z,12.35
2023-03-31T12:24:51.559Z,12.43
2023-03-31T12:27:28.110Z,12.43
2023-03-31T12:29:59.388Z,12.47
2023-03-31T12:32:36.454Z,12.50
2023-03-31T12:35:22.709Z,12.61
2023-03-31T12:38:26.867Z,12.89
2023-03-31T12:41:29.635Z,13.27
2023-03-31T12:44:17.442Z,13.52
2023-03-31T12:47:18.600Z,13.49
2023-03-31T12:49:55.857Z,13.18
2023-03-31T12:52:48.696Z,12.95
2023-03-31T12:55:37.743Z,13.01
2023-03-31T12:58:23.159Z,13.08
2023-03-31T13:01:21.618Z,13.11
2023-03-31T13:04:27.286Z,13.19
2023-03-31T13:07:00.025Z,13.31
2023-03-31T13:09:42.742Z,13.20
2023-03-31T13:12:19.569Z,13.29
2023-03-31T13:14:51.838Z,13.58
2023-03-31T13:17:31.283Z,13.66
2023-03-31T13:20:40.583Z,13.77
2023-03-31T13:23:19.770Z,13.66
2023-03-31T13:26:06.934Z,13.36
2023-03-31T13:28:37.796Z,13.34
2023-03-31T13:31:08.184Z,13.39
2023-03-31T13:33:44.626Z,13.49
2023-03-31T13:36:26.823Z,13.44
2023-03-31T13:39:27.907Z,13.51
2023-03-31T13:42:03.792Z,13.32
2023-03-31T13:44:54.083Z,13.33
2023-03-31T13:47:46.952Z,13.20
2023-03-31T13:51:01.086Z,13.19
2023-03-31T13:53:54.590Z,12.79
2023-03-31T13:56:51.945Z,11.91
2023-03-31T13:59:42.495Z,11.67
2023-03-31T14:02:30.847Z,11.46
2023-03-31T14:05:18.117Z,11.36
2023-03-31T14:07:50.975Z,11.27
2023-03-31T14:10:32.945Z,11.51
2023-03-31T14:13:09.949Z,11.82
2023-03-31T14:15:58.759Z,12.13
2023-03-31T14:18:33.498Z,12.46
2023-03-31T14:21:03.269Z,12.44
2023-03-31T14:23:38.617Z,12.30
2023-03-31T14:26:34.899Z,12.45
2023-03-31T14:29:23.338Z,12.89
2023-03-31T14:32:32.628Z,12.93
2023-03-31T14:35:28.984Z,13.01
2023-03-31T14:37:57.380Z,13.29
2023-03-31T14:40:25.530Z,13.31
2023-03-31T14:42:53.252Z,13.52
2023-03-31T14:45:25.602Z,13.19
2023-03-31T14:48:09.475Z,13.03
2023-03-31T14:50:37.034Z,12.99
2023-03-31T14:53:05.431Z,12.89
2023-03-31T14:55:49.261Z,12.76
2023-03-31T14:58:46.032Z,12.62
2023-03-31T15:01:18.788Z,12.63
2023-03-31T15:03:47.311Z,12.66
2023-03-31T15:06:15.831Z,12.64
2023-03-31T15:08:43.599Z,12.52
2023-03-31T15:11:19.572Z,12.28
2023-03-31T15:14:04.534Z,12.14
2023-03-31T15:16:45.103Z,12.05
2023-03-31T15:19:35.760Z,12.11
2023-03-31T15:22:14.264Z,12.08
2023-03-31T15:24:41.819Z,12.18
2023-03-31T15:27:38.354Z,12.26
2023-03-31T15:30:15.634Z,11.88
2023-03-31T15:32:43.507Z,11.75
2023-03-31T15:35:25.712Z,11.55
2023-03-31T15:37:56.412Z,11.53
2023-03-31T15:40:29.482Z,11.29
2023-03-31T15:43:24.576Z,11.22
2023-03-31T15:45:53.857Z,11.23
2023-03-31T15:48:34.772Z,11.31
2023-03-31T15:51:20.880Z,11.38
2023-03-31T15:53:54.884Z,11.53
2023-03-31T15:56:32.458Z,11.67
2023-03-31T15:59:05.944Z,11.71
2023-03-31T16:01:38.955Z,11.82
2023-03-31T16:04:13.226Z,11.75
2023-03-31T16:07:01.951Z,11.79
2023-03-31T16:10:01.956Z,11.87
2023-03-31T16:12:43.956Z,11.92
2023-03-31T16:15:14.695Z,11.95
2023-03-31T16:17:52.902Z,11.98
2023-03-31T16:20:25.783Z,12.01
2023-03-31T16:22:56.663Z,12.06
2023-03-31T16:25:27.882Z,12.03
2023-03-31T16:27:58.964Z,12.10
2023-03-31T16:30:39.578Z,12.01
2023-03-31T16:33:13.026Z,12.06
2023-03-31T16:35:49.243Z,12.08
2023-03-31T16:38:17.327Z,12.05
2023-03-31T16:40:50.907Z,12.10
2023-03-31T16:43:19.101Z,11.99
2023-03-31T16:45:49.238Z,12.03
2023-03-31T16:48:19.276Z,11.99
2023-03-31T16:50:54.394Z,11.92
2023-03-31T16:53:34.025Z,11.85
2023-03-31T16:56:01.807Z,12.00
2023-03-31T16:58:29.557Z,11.93
2023-03-31T17:00:57.961Z,11.89
2023-03-31T17:03:26.100Z,11.87
2023-03-31T17:05:59.234Z,11.87
2023-03-31T17:08:28.044Z,11.79
2023-03-31T17:11:17.086Z,11.75
2023-03-31T17:13:44.923Z,11.80
2023-03-31T17:16:22.234Z,11.65
2023-03-31T17:18:56.649Z,11.68
2023-03-31T17:21:24.806Z,11.61
2023-03-31T17:23:52.442Z,11.58
2023-03-31T17:26:20.099Z,11.48
2023-03-31T17:28:47.473Z,11.41
2023-03-31T17:31:18.515Z,11.60
2023-03-31T17:33:46.321Z,11.43
2023-03-31T17:36:15.269Z,11.40
2023-03-31T17:38:43.155Z,11.29
2023-03-31T17:41:13.384Z,11.35
2023-03-31T17:43:44.518Z,11.31
2023-03-31T17:46:12.650Z,11.49
2023-03-31T17:48:40.998Z,11.57
2023-03-31T17:51:15.373Z,11.85
2023-03-31T17:53:47.452Z,11.68
2023-03-31T17:56:15.683Z,11.60
2023-03-31T17:58:43.255Z,11.54
2023-03-31T18:01:12.021Z,11.55
2023-03-31T18:03:39.521Z,11.59
2023-03-31T18:06:11.486Z,11.41
2023-03-31T18:08:40.630Z,11.46
2023-03-31T18:11:08.769Z,11.36
2023-03-31T18:13:37.191Z,11.21
2023-03-31T18:16:06.111Z,11.14
2023-03-31T18:18:33.603Z,11.22
2023-03-31T18:21:08.939Z,11.28
2023-03-31T18:23:37.625Z,11.32
2023-03-31T18:26:14.390Z,11.19
2023-03-31T18:28:41.978Z,11.17
2023-03-31T18:31:10.194Z,11.23
2023-03-31T18:33:38.299Z,11.18
2023-03-31T18:36:07.284Z,11.09
2023-03-31T18:38:37.047Z,11.01
2023-03-31T18:41:04.996Z,10.99
2023-03-31T18:43:33.345Z,10.94
2023-03-31T18:46:04.941Z,10.77
2023-03-31T18:48:33.187Z,10.51
2023-03-31T18:51:01.264Z,10.34
2023-03-31T18:53:30.222Z,10.26
2023-03-31T18:55:59.137Z,10.17
2023-03-31T18:58:29.477Z,10.07
2023-03-31T19:00:57.865Z,10.04
2023-03-31T19:03:27.038Z,9.97
2023-03-31T19:06:05.504Z,9.84
2023-03-31T19:08:33.127Z,9.66
2023-03-31T19:11:27.342Z,9.48
2023-03-31T19:13:56.105Z,9.41
2023-03-31T19:16:27.561Z,9.42
2023-03-31T19:18:55.710Z,9.40
2023-03-31T19:21:23.237Z,9.45
2023-03-31T19:23:50.761Z,9.42
2023-03-31T19:26:19.752Z,9.36
2023-03-31T19:28:48.475Z,9.36
2023-03-31T19:31:16.227Z,9.35
2023-03-31T19:33:43.479Z,9.36
2023-03-31T19:36:11.404Z,9.39
2023-03-31T19:38:38.888Z,9.42
2023-03-31T19:41:07.453Z,9.45
2023-03-31T19:43:34.915Z,9.56
2023-03-31T19:46:04.810Z,9.65
2023-03-31T19:48:34.037Z,9.96
2023-03-31T19:51:07.355Z,10.20
2023-03-31T19:53:37.390Z,9.94
2023-03-31T19:56:10.868Z,9.91
2023-03-31T19:58:38.852Z,9.79
2023-03-31T20:01:12.266Z,9.85
2023-03-31T20:03:39.755Z,9.94
2023-03-31T20:06:14.046Z,9.98
2023-03-31T20:08:43.058Z,10.39
2023-03-31T20:11:13.479Z,10.36
2023-03-31T20:13:42.755Z,10.18
2023-03-31T20:16:14.241Z,10.07
2023-03-31T20:18:43.672Z,9.98
2023-03-31T20:21:15.578Z,9.83
2023-03-31T20:23:43.652Z,9.72
2023-03-31T20:26:14.124Z,9.78
2023-03-31T20:28:42.076Z,9.66
2023-03-31T20:31:11.769Z,9.65
2023-03-31T20:33:39.782Z,9.57
2023-03-31T20:36:11.029Z,9.47
2023-03-31T20:38:39.548Z,9.46
2023-03-31T20:41:07.822Z,9.35
2023-03-31T20:43:36.079Z,9.39
2023-03-31T20:46:05.356Z,9.38
2023-03-31T20:48:40.041Z,9.46
2023-03-31T20:51:10.316Z,9.42
2023-03-31T20:53:43.992Z,9.43
2023-03-31T20:56:14.848Z,9.46
2023-03-31T20:58:44.234Z,9.39
2023-03-31T21:01:13.440Z,9.44
2023-03-31T21:03:41.603Z,9.50
2023-03-31T21:06:12.151Z,9.69
2023-03-31T21:08:41.711Z,9.88
2023-03-31T21:11:09.925Z,10.02
2023-03-31T21:13:37.314Z,9.90
2023-03-31T21:16:05.092Z,10.27
2023-03-31T21:18:37.284Z,10.16
2023-03-31T21:21:12.346Z,10.27
2023-03-31T21:23:39.827Z,10.63
2023-03-31T21:26:09.517Z,10.57
2023-03-31T21:28:38.405Z,10.61
2023-03-31T21:31:15.008Z,10.55
2023-03-31T21:33:44.170Z,10.55
2023-03-31T21:36:15.162Z,10.64
2023-03-31T21:38:42.995Z,10.61
2023-03-31T21:41:15.325Z,10.56
2023-03-31T21:43:43.598Z,10.65
2023-03-31T21:46:19.707Z,10.57
2023-03-31T21:48:48.897Z,10.57
2023-03-31T21:51:17.725Z,10.67
2023-03-31T21:53:45.202Z,10.59
2023-03-31T21:56:12.568Z,10.61
2023-03-31T21:58:40.068Z,10.64
2023-03-31T22:01:08.533Z,10.66
2023-03-31T22:03:36.792Z,10.72
2023-03-31T22:06:09.468Z,10.75
2023-03-31T22:08:38.826Z,10.97
2023-03-31T22:11:08.640Z,10.68
2023-03-31T22:13:37.018Z,10.65
2023-03-31T22:16:05.272Z,10.65
2023-03-31T22:18:32.696Z,10.80
2023-03-31T22:21:01.017Z,10.67
2023-03-31T22:23:28.545Z,10.50
2023-03-31T22:25:56.126Z,10.53
2023-03-31T22:28:23.610Z,10.71
2023-03-31T22:30:51.098Z,10.70
2023-03-31T22:33:18.508Z,10.61
2023-03-31T22:35:45.994Z,10.50
2023-03-31T22:38:14.050Z,10.62
2023-03-31T22:40:41.421Z,10.68
2023-03-31T22:43:08.973Z,10.62
2023-03-31T22:45:38.121Z,10.58
2023-03-31T22:48:07.285Z,10.58
2023-03-31T22:50:34.721Z,10.63
2023-03-31T22:53:02.429Z,10.51
2023-03-31T22:55:30.211Z,10.51
2023-03-31T22:57:57.714Z,10.43
2023-03-31T23:00:25.071Z,10.44
2023-03-31T23:02:52.414Z,10.61
2023-03-31T23:05:19.843Z,10.56
2023-03-31T23:07:47.550Z,10.54
2023-03-31T23:10:14.872Z,10.47
2023-03-31T23:12:42.917Z,10.60
2023-03-31T23:15:10.959Z,10.68
2023-03-31T23:17:38.495Z,10.58
2023-03-31T23:20:06.611Z,10.52
2023-03-31T23:22:34.399Z,10.78
2023-03-31T23:25:01.970Z,10.61
2023-03-31T23:27:29.359Z,10.59
2023-03-31T23:29:56.673Z,10.67
2023-03-31T23:32:24.055Z,10.67
2023-03-31T23:34:51.523Z,10.52
2023-03-31T23:37:19.049Z,10.58
2023-03-31T23:39:46.468Z,10.51
2023-03-31T23:42:16.226Z,10.60
2023-03-31T23:44:44.194Z,10.69
2023-03-31T23:47:11.710Z,10.61
2023-03-31T23:49:39.084Z,10.52
2023-03-31T23:52:06.556Z,10.48
2023-03-31T23:54:33.967Z,10.51
2023-03-31T23:57:01.552Z,10.64
2023-03-31T23:59:28.908Z,10.48
